sensor_id;sensor_type;location;lat;lon;timestamp;pressure;altitude;pressure_sealevel;temperature;humidity
37858;BME280;23695;55.868;37.472;2022-12-18T00:01:37;98776.38;;;25.60;15.73
37858;BME280;23695;55.868;37.472;2022-12-18T00:04:05;98772.06;;;25.59;15.70
37858;BME280;23695;55.868;37.472;2022-12-18T00:06:34;98769.75;;;25.57;15.64
37858;BME280;23695;55.868;37.472;2022-12-18T00:09:03;98760.69;;;25.57;15.63
37858;BME280;23695;55.868;37.472;2022-12-18T00:11:30;98758.38;;;25.55;15.65
37858;BME280;23695;55.868;37.472;2022-12-18T00:13:59;98749.31;;;25.55;15.54
37858;BME280;23695;55.868;37.472;2022-12-18T00:16:27;98751.72;;;25.53;16.04
37858;BME280;23695;55.868;37.472;2022-12-18T00:18:59;98750.94;;;25.52;15.91
37858;BME280;23695;55.868;37.472;2022-12-18T00:21:28;98741.09;;;25.51;15.92
37858;BME280;23695;55.868;37.472;2022-12-18T00:23:55;98741.56;;;25.50;15.86
37858;BME280;23695;55.868;37.472;2022-12-18T00:26:28;98742.78;;;25.49;15.93
37858;BME280;23695;55.868;37.472;2022-12-18T00:28:59;98741.09;;;25.51;15.64
37858;BME280;23695;55.868;37.472;2022-12-18T00:31:27;98737.69;;;25.47;15.50
37858;BME280;23695;55.868;37.472;2022-12-18T00:33:55;98729.41;;;25.47;15.98
37858;BME280;23695;55.868;37.472;2022-12-18T00:36:24;98723.44;;;25.49;15.46
37858;BME280;23695;55.868;37.472;2022-12-18T00:38:53;98716.03;;;25.46;16.12
37858;BME280;23695;55.868;37.472;2022-12-18T00:41:20;98700.22;;;25.46;15.93
37858;BME280;23695;55.868;37.472;2022-12-18T00:43:47;98701.00;;;25.47;15.79
37858;BME280;23695;55.868;37.472;2022-12-18T00:46:13;98705.75;;;25.46;16.06
37858;BME280;23695;55.868;37.472;2022-12-18T00:48:40;98693.91;;;25.46;16.00
37858;BME280;23695;55.868;37.472;2022-12-18T00:51:07;98698.22;;;25.47;15.75
37858;BME280;23695;55.868;37.472;2022-12-18T00:53:34;98691.94;;;25.46;15.64
37858;BME280;23695;55.868;37.472;2022-12-18T00:56:01;98693.91;;;25.46;15.88
37858;BME280;23695;55.868;37.472;2022-12-18T00:58:28;98691.16;;;25.46;15.70
37858;BME280;23695;55.868;37.472;2022-12-18T01:00:54;98689.94;;;25.47;15.78
37858;BME280;23695;55.868;37.472;2022-12-18T01:03:21;98687.94;;;25.47;16.03
37858;BME280;23695;55.868;37.472;2022-12-18T01:05:48;98681.66;;;25.47;16.04
37858;BME280;23695;55.868;37.472;2022-12-18T01:08:15;98685.94;;;25.48;15.77
37858;BME280;23695;55.868;37.472;2022-12-18T01:10:41;98676.88;;;25.47;15.73
37858;BME280;23695;55.868;37.472;2022-12-18T01:13:08;98681.19;;;25.48;15.73
37858;BME280;23695;55.868;37.472;2022-12-18T01:15:35;98669.38;;;25.48;15.85
37858;BME280;23695;55.868;37.472;2022-12-18T01:18:06;98675.66;;;25.48;16.28
37858;BME280;23695;55.868;37.472;2022-12-18T01:20:32;98667.72;;;25.37;16.20
37858;BME280;23695;55.868;37.472;2022-12-18T01:22:59;98662.63;;;25.49;15.79
37858;BME280;23695;55.868;37.472;2022-12-18T01:25:26;98659.84;;;25.49;16.23
37858;BME280;23695;55.868;37.472;2022-12-18T01:27:53;98652.34;;;25.49;15.86
37858;BME280;23695;55.868;37.472;2022-12-18T01:30:19;98651.56;;;25.49;15.93
37858;BME280;23695;55.868;37.472;2022-12-18T01:32:46;98647.59;;;25.50;16.16
37858;BME280;23695;55.868;37.472;2022-12-18T01:35:13;98648.81;;;25.49;16.01
37858;BME280;23695;55.868;37.472;2022-12-18T01:37:40;98653.56;;;25.48;15.77
37858;BME280;23695;55.868;37.472;2022-12-18T01:40:07;98644.50;;;25.48;15.86
37858;BME280;23695;55.868;37.472;2022-12-18T01:42:34;98663.06;;;25.47;15.79
37858;BME280;23695;55.868;37.472;2022-12-18T01:47:50;98646.50;;;25.47;16.03
37858;BME280;23695;55.868;37.472;2022-12-18T01:52:50;98657.53;;;25.47;15.77
37858;BME280;23695;55.868;37.472;2022-12-18T01:55:20;98647.72;;;25.46;15.32
37858;BME280;23695;55.868;37.472;2022-12-18T01:57:53;98642.94;;;25.47;15.40
37858;BME280;23695;55.868;37.472;2022-12-18T02:00:21;98652.47;;;25.46;15.35
37858;BME280;23695;55.868;37.472;2022-12-18T02:02:49;98648.47;;;25.47;15.76
37858;BME280;23695;55.868;37.472;2022-12-18T02:08:26;98656.00;;;25.46;15.93
37858;BME280;23695;55.868;37.472;2022-12-18T02:17:43;98654.78;;;25.47;15.75
37858;BME280;23695;55.868;37.472;2022-12-18T02:20:35;98652.66;;;25.51;16.03
37858;BME280;23695;55.868;37.472;2022-12-18T02:26:07;98656.19;;;25.52;15.69
37858;BME280;23695;55.868;37.472;2022-12-18T02:28:41;98663.25;;;25.53;16.18
37858;BME280;23695;55.868;37.472;2022-12-18T02:31:13;98663.25;;;25.53;15.77
37858;BME280;23695;55.868;37.472;2022-12-18T02:33:43;98654.97;;;25.53;15.89
37858;BME280;23695;55.868;37.472;2022-12-18T02:36:12;98668.38;;;25.54;15.94
37858;BME280;23695;55.868;37.472;2022-12-18T02:38:41;98655.78;;;25.53;16.13
37858;BME280;23695;55.868;37.472;2022-12-18T02:41:09;98649.78;;;25.55;15.95
37858;BME280;23695;55.868;37.472;2022-12-18T02:43:36;98646.25;;;25.54;15.63
37858;BME280;23695;55.868;37.472;2022-12-18T02:54:24;98662.41;;;25.56;15.88
37858;BME280;23695;55.868;37.472;2022-12-18T02:56:58;98648.56;;;25.56;15.82
37858;BME280;23695;55.868;37.472;2022-12-18T02:59:41;98652.88;;;25.57;15.85
37858;BME280;23695;55.868;37.472;2022-12-18T03:02:24;98659.19;;;25.57;15.63
37858;BME280;23695;55.868;37.472;2022-12-18T03:05:02;98641.81;;;25.57;15.69
37858;BME280;23695;55.868;37.472;2022-12-18T03:13:34;98647.66;;;25.59;15.90
37858;BME280;23695;55.868;37.472;2022-12-18T03:16:06;98646.91;;;25.58;16.10
37858;BME280;23695;55.868;37.472;2022-12-18T03:18:39;98638.59;;;25.58;16.07
37858;BME280;23695;55.868;37.472;2022-12-18T03:21:09;98629.53;;;25.58;16.10
37858;BME280;23695;55.868;37.472;2022-12-18T03:23:45;98636.28;;;25.57;15.67
37858;BME280;23695;55.868;37.472;2022-12-18T03:26:17;98641.38;;;25.58;15.68
37858;BME280;23695;55.868;37.472;2022-12-18T03:28:49;98631.09;;;25.59;15.97
37858;BME280;23695;55.868;37.472;2022-12-18T03:31:18;98640.16;;;25.59;15.90
37858;BME280;23695;55.868;37.472;2022-12-18T03:33:55;98646.91;;;25.58;15.52
37858;BME280;23695;55.868;37.472;2022-12-18T03:36:22;98644.91;;;25.59;15.87
37858;BME280;23695;55.868;37.472;2022-12-18T03:38:50;98646.91;;;25.58;15.67
37858;BME280;23695;55.868;37.472;2022-12-18T03:44:10;98657.63;;;25.56;15.65
37858;BME280;23695;55.868;37.472;2022-12-18T03:46:52;98652.44;;;25.58;15.52
37858;BME280;23695;55.868;37.472;2022-12-18T03:49:33;98663.16;;;25.56;15.61
37858;BME280;23695;55.868;37.472;2022-12-18T03:54:35;98643.81;;;25.56;15.56
37858;BME280;23695;55.868;37.472;2022-12-18T03:57:10;98647.34;;;25.57;15.61
37858;BME280;23695;55.868;37.472;2022-12-18T03:59:39;98638.28;;;25.56;15.58
37858;BME280;23695;55.868;37.472;2022-12-18T04:02:07;98640.28;;;25.56;15.49
37858;BME280;23695;55.868;37.472;2022-12-18T04:04:37;98644.59;;;25.57;15.61
37858;BME280;23695;55.868;37.472;2022-12-18T04:07:06;98646.59;;;25.56;15.59
37858;BME280;23695;55.868;37.472;2022-12-18T04:09:34;98644.28;;;25.55;15.51
37858;BME280;23695;55.868;37.472;2022-12-18T04:12:02;98647.81;;;25.55;15.97
37858;BME280;23695;55.868;37.472;2022-12-18T04:14:29;98647.81;;;25.55;15.68
37858;BME280;23695;55.868;37.472;2022-12-18T04:16:55;98654.56;;;25.54;15.78
37858;BME280;23695;55.868;37.472;2022-12-18T04:19:22;98649.78;;;25.55;16.01
37858;BME280;23695;55.868;37.472;2022-12-18T04:21:49;98650.56;;;25.55;15.62
37858;BME280;23695;55.868;37.472;2022-12-18T04:24:16;98669.16;;;25.55;15.77
37858;BME280;23695;55.868;37.472;2022-12-18T04:26:43;98662.41;;;25.56;15.74
37858;BME280;23695;55.868;37.472;2022-12-18T04:29:10;98670.69;;;25.56;15.80
37858;BME280;23695;55.868;37.472;2022-12-18T04:31:37;98672.22;;;25.57;15.84
37858;BME280;23695;55.868;37.472;2022-12-18T04:34:03;98692.81;;;25.56;15.50
37858;BME280;23695;55.868;37.472;2022-12-18T04:36:30;98695.56;;;25.56;15.77
37858;BME280;23695;55.868;37.472;2022-12-18T04:38:57;98717.69;;;25.56;15.49
37858;BME280;23695;55.868;37.472;2022-12-18T04:41:24;98730.72;;;25.55;15.76
37858;BME280;23695;55.868;37.472;2022-12-18T04:43:50;98721.66;;;25.55;15.58
37858;BME280;23695;55.868;37.472;2022-12-18T04:46:17;98726.41;;;25.54;15.77
37858;BME280;23695;55.868;37.472;2022-12-18T04:48:45;98723.19;;;25.56;15.51
37858;BME280;23695;55.868;37.472;2022-12-18T04:51:12;98733.50;;;25.55;15.82
37858;BME280;23695;55.868;37.472;2022-12-18T04:53:39;98726.41;;;25.54;15.62
37858;BME280;23695;55.868;37.472;2022-12-18T04:56:12;98730.72;;;25.55;15.79
37858;BME280;23695;55.868;37.472;2022-12-18T04:58:40;98733.16;;;25.53;15.87
37858;BME280;23695;55.868;37.472;2022-12-18T05:01:08;98731.94;;;25.54;15.42
37858;BME280;23695;55.868;37.472;2022-12-18T05:03:36;98726.84;;;25.53;15.70
37858;BME280;23695;55.868;37.472;2022-12-18T05:06:04;98719.75;;;25.52;15.44
37858;BME280;23695;55.868;37.472;2022-12-18T05:08:32;98703.19;;;25.52;15.36
37858;BME280;23695;55.868;37.472;2022-12-18T05:11:01;98708.72;;;25.52;15.24
37858;BME280;23695;55.868;37.472;2022-12-18T05:13:28;98718.22;;;25.51;15.59
37858;BME280;23695;55.868;37.472;2022-12-18T05:15:56;98704.41;;;25.51;15.31
37858;BME280;23695;55.868;37.472;2022-12-18T05:18:24;98719.44;;;25.50;15.54
37858;BME280;23695;55.868;37.472;2022-12-18T05:20:52;98716.69;;;25.50;15.24
37858;BME280;23695;55.868;37.472;2022-12-18T05:23:21;98744.63;;;25.52;15.57
37858;BME280;23695;55.868;37.472;2022-12-18T05:25:55;98756.47;;;25.52;15.63
37858;BME280;23695;55.868;37.472;2022-12-18T05:28:24;98745.88;;;25.51;15.89
37858;BME280;23695;55.868;37.472;2022-12-18T05:30:53;98738.34;;;25.51;16.03
37858;BME280;23695;55.868;37.472;2022-12-18T05:33:22;98753.69;;;25.52;15.94
37858;BME280;23695;55.868;37.472;2022-12-18T05:35:53;98752.50;;;25.53;15.88
37858;BME280;23695;55.868;37.472;2022-12-18T05:38:21;98769.50;;;25.52;16.11
37858;BME280;23695;55.868;37.472;2022-12-18T05:40:49;98759.22;;;25.52;16.09
37858;BME280;23695;55.868;37.472;2022-12-18T05:43:17;98768.28;;;25.53;15.69
37858;BME280;23695;55.868;37.472;2022-12-18T05:45:47;98774.84;;;25.46;15.72
37858;BME280;23695;55.868;37.472;2022-12-18T05:48:14;98779.59;;;25.58;15.82
37858;BME280;23695;55.868;37.472;2022-12-18T05:50:43;98775.50;;;25.63;15.96
37858;BME280;23695;55.868;37.472;2022-12-18T05:53:10;98775.84;;;25.65;15.78
37858;BME280;23695;55.868;37.472;2022-12-18T05:55:39;98789.66;;;25.65;15.37
37858;BME280;23695;55.868;37.472;2022-12-18T05:58:08;98793.19;;;25.65;15.54
37858;BME280;23695;55.868;37.472;2022-12-18T06:00:37;98795.97;;;25.65;15.05
37858;BME280;23695;55.868;37.472;2022-12-18T06:03:06;98804.69;;;25.64;15.38
37858;BME280;23695;55.868;37.472;2022-12-18T06:05:42;98796.41;;;25.64;15.31
37858;BME280;23695;55.868;37.472;2022-12-18T06:08:09;98798.03;;;25.61;15.36
37858;BME280;23695;55.868;37.472;2022-12-18T06:10:37;98804.00;;;25.60;15.38
37858;BME280;23695;55.868;37.472;2022-12-18T06:13:22;98812.44;;;25.56;15.30
37858;BME280;23695;55.868;37.472;2022-12-18T06:15:49;98814.41;;;25.56;14.87
37858;BME280;23695;55.868;37.472;2022-12-18T06:18:16;98814.09;;;25.54;14.81
37858;BME280;23695;55.868;37.472;2022-12-18T06:20:43;98829.91;;;25.53;14.86
37858;BME280;23695;55.868;37.472;2022-12-18T06:23:10;98826.00;;;25.51;15.30
37858;BME280;23695;55.868;37.472;2022-12-18T06:25:38;98830.00;;;25.50;14.92
37858;BME280;23695;55.868;37.472;2022-12-18T06:28:05;98824.91;;;25.48;15.45
37858;BME280;23695;55.868;37.472;2022-12-18T06:30:32;98834.75;;;25.49;15.34
37858;BME280;23695;55.868;37.472;2022-12-18T06:32:59;98830.44;;;25.48;15.06
37858;BME280;23695;55.868;37.472;2022-12-18T06:35:26;98839.19;;;25.47;15.13
37858;BME280;23695;55.868;37.472;2022-12-18T06:37:52;98834.41;;;25.47;14.92
37858;BME280;23695;55.868;37.472;2022-12-18T06:40:19;98839.19;;;25.47;14.93
37858;BME280;23695;55.868;37.472;2022-12-18T06:42:48;98839.94;;;25.47;14.94
37858;BME280;23695;55.868;37.472;2022-12-18T06:45:15;98848.69;;;25.46;15.22
37858;BME280;23695;55.868;37.472;2022-12-18T06:47:42;98860.97;;;25.45;14.99
37858;BME280;23695;55.868;37.472;2022-12-18T06:50:09;98867.25;;;25.45;15.15
37858;BME280;23695;55.868;37.472;2022-12-18T06:52:36;98866.50;;;25.45;15.02
37858;BME280;23695;55.868;37.472;2022-12-18T06:55:04;98881.50;;;25.43;15.15
37858;BME280;23695;55.868;37.472;2022-12-18T06:57:32;98883.06;;;25.45;15.21
37858;BME280;23695;55.868;37.472;2022-12-18T07:00:00;98890.22;;;25.42;15.18
37858;BME280;23695;55.868;37.472;2022-12-18T07:02:27;98898.84;;;25.44;15.05
37858;BME280;23695;55.868;37.472;2022-12-18T07:04:54;98886.59;;;25.45;14.93
37858;BME280;23695;55.868;37.472;2022-12-18T07:07:21;98894.91;;;25.45;15.01
37858;BME280;23695;55.868;37.472;2022-12-18T07:09:49;98893.69;;;25.46;15.09
37858;BME280;23695;55.868;37.472;2022-12-18T07:12:16;98898.44;;;25.46;15.13
37858;BME280;23695;55.868;37.472;2022-12-18T07:14:43;98896.44;;;25.46;15.30
37858;BME280;23695;55.868;37.472;2022-12-18T07:17:10;98896.44;;;25.46;14.88
37858;BME280;23695;55.868;37.472;2022-12-18T07:19:37;98902.75;;;25.47;15.14
37858;BME280;23695;55.868;37.472;2022-12-18T07:22:04;98900.75;;;25.47;15.13
37858;BME280;23695;55.868;37.472;2022-12-18T07:24:33;98889.69;;;25.47;15.13
37858;BME280;23695;55.868;37.472;2022-12-18T07:27:00;98911.03;;;25.47;15.27
37858;BME280;23695;55.868;37.472;2022-12-18T07:29:27;98920.09;;;25.47;15.13
37858;BME280;23695;55.868;37.472;2022-12-18T07:31:54;98930.38;;;25.47;15.02
37858;BME280;23695;55.868;37.472;2022-12-18T07:34:21;98942.22;;;25.47;15.07
37858;BME280;23695;55.868;37.472;2022-12-18T07:36:48;98946.19;;;25.46;15.41
37858;BME280;23695;55.868;37.472;2022-12-18T07:39:14;98949.41;;;25.45;15.58
37858;BME280;23695;55.868;37.472;2022-12-18T07:41:59;98962.41;;;25.44;15.54
37858;BME280;23695;55.868;37.472;2022-12-18T07:44:25;98949.41;;;25.45;15.47
37858;BME280;23695;55.868;37.472;2022-12-18T07:46:52;98949.41;;;25.45;15.42
37858;BME280;23695;55.868;37.472;2022-12-18T07:49:19;98953.72;;;25.46;15.59
37858;BME280;23695;55.868;37.472;2022-12-18T07:51:46;98945.41;;;25.46;15.41
37858;BME280;23695;55.868;37.472;2022-12-18T07:54:12;98951.72;;;25.46;15.22
37858;BME280;23695;55.868;37.472;2022-12-18T07:56:39;98965.09;;;25.48;15.64
37858;BME280;23695;55.868;37.472;2022-12-18T07:59:06;98966.66;;;25.49;15.43
37858;BME280;23695;55.868;37.472;2022-12-18T08:01:33;98946.84;;;25.50;15.36
37858;BME280;23695;55.868;37.472;2022-12-18T08:04:00;98946.09;;;25.50;15.50
37858;BME280;23695;55.868;37.472;2022-12-18T08:06:27;98940.56;;;25.50;15.25
37858;BME280;23695;55.868;37.472;2022-12-18T08:08:55;98945.66;;;25.51;15.13
37858;BME280;23695;55.868;37.472;2022-12-18T08:11:24;98964.22;;;25.51;15.12
37858;BME280;23695;55.868;37.472;2022-12-18T08:13:51;98974.50;;;25.50;15.36
37858;BME280;23695;55.868;37.472;2022-12-18T08:16:19;98976.50;;;25.50;15.26
37858;BME280;23695;55.868;37.472;2022-12-18T08:18:47;98982.47;;;25.48;15.32
37858;BME280;23695;55.868;37.472;2022-12-18T08:21:18;98978.91;;;25.48;14.92
37858;BME280;23695;55.868;37.472;2022-12-18T08:23:46;98999.94;;;25.45;15.31
37858;BME280;23695;55.868;37.472;2022-12-18T08:26:14;99009.00;;;25.46;15.00
37858;BME280;23695;55.868;37.472;2022-12-18T08:28:42;99020.81;;;25.46;15.13
37858;BME280;23695;55.868;37.472;2022-12-18T08:31:09;99030.66;;;25.47;14.73
37858;BME280;23695;55.868;37.472;2022-12-18T08:33:37;99032.97;;;25.49;15.10
37858;BME280;23695;55.868;37.472;2022-12-18T08:36:05;99036.53;;;25.49;15.50
37858;BME280;23695;55.868;37.472;2022-12-18T08:38:33;99028.94;;;25.53;16.18
37858;BME280;23695;55.868;37.472;2022-12-18T08:43:28;99043.41;;;25.57;17.43
37858;BME280;23695;55.868;37.472;2022-12-18T08:45:55;99041.09;;;25.56;17.02
37858;BME280;23695;55.868;37.472;2022-12-18T08:48:23;99040.75;;;25.54;17.01
37858;BME280;23695;55.868;37.472;2022-12-18T08:50:56;99042.38;;;25.51;16.95
37858;BME280;23695;55.868;37.472;2022-12-18T08:53:27;99027.91;;;25.47;16.74
37858;BME280;23695;55.868;37.472;2022-12-18T08:56:01;99039.47;;;25.42;16.20
37858;BME280;23695;55.868;37.472;2022-12-18T08:58:27;99034.81;;;25.39;15.98
37858;BME280;23695;55.868;37.472;2022-12-18T09:00:57;99030.25;;;25.32;16.69
37858;BME280;23695;55.868;37.472;2022-12-18T09:03:25;99036.22;;;25.31;16.86
37858;BME280;23695;55.868;37.472;2022-12-18T09:05:52;99035.88;;;25.29;16.78
37858;BME280;23695;55.868;37.472;2022-12-18T09:08:19;99040.28;;;25.26;16.93
37858;BME280;23695;55.868;37.472;2022-12-18T09:10:48;99052.53;;;25.25;16.59
37858;BME280;23695;55.868;37.472;2022-12-18T09:13:16;99049.44;;;25.23;17.01
37858;BME280;23695;55.868;37.472;2022-12-18T09:15:45;99055.84;;;25.20;16.88
37858;BME280;23695;55.868;37.472;2022-12-18T09:18:14;99052.75;;;25.18;16.96
37858;BME280;23695;55.868;37.472;2022-12-18T09:20:41;99065.75;;;25.18;17.01
37858;BME280;23695;55.868;37.472;2022-12-18T09:23:08;99064.97;;;25.17;16.79
37858;BME280;23695;55.868;37.472;2022-12-18T09:25:38;99077.16;;;25.03;16.75
37858;BME280;23695;55.868;37.472;2022-12-18T09:28:10;99073.47;;;25.10;16.69
37858;BME280;23695;55.868;37.472;2022-12-18T09:30:43;99083.38;;;25.07;16.44
37858;BME280;23695;55.868;37.472;2022-12-18T09:33:10;99078.00;;;25.00;16.72
37858;BME280;23695;55.868;37.472;2022-12-18T09:35:41;99085.94;;;24.98;16.50
37858;BME280;23695;55.868;37.472;2022-12-18T09:38:18;99091.88;;;24.97;16.77
37858;BME280;23695;55.868;37.472;2022-12-18T09:43:41;99118.81;;;24.93;16.30
37858;BME280;23695;55.868;37.472;2022-12-18T09:46:07;99122.25;;;24.80;16.59
37858;BME280;23695;55.868;37.472;2022-12-18T09:48:40;99127.94;;;24.90;16.58
37858;BME280;23695;55.868;37.472;2022-12-18T09:51:18;99119.66;;;24.90;16.24
37858;BME280;23695;55.868;37.472;2022-12-18T09:53:57;99131.13;;;24.88;16.70
37858;BME280;23695;55.868;37.472;2022-12-18T09:56:28;99126.84;;;24.87;16.70
37858;BME280;23695;55.868;37.472;2022-12-18T09:58:58;99141.41;;;24.88;16.64
37858;BME280;23695;55.868;37.472;2022-12-18T10:01:26;99135.13;;;24.87;16.82
37858;BME280;23695;55.868;37.472;2022-12-18T10:04:08;99143.41;;;24.87;16.57
37858;BME280;23695;55.868;37.472;2022-12-18T10:06:45;99150.47;;;24.88;16.67
37858;BME280;23695;55.868;37.472;2022-12-18T10:09:41;99135.13;;;24.87;16.18
37858;BME280;23695;55.868;37.472;2022-12-18T10:12:43;99137.53;;;24.85;16.08
37858;BME280;23695;55.868;37.472;2022-12-18T10:15:24;99145.03;;;24.84;15.68
37858;BME280;23695;55.868;37.472;2022-12-18T10:18:38;99145.88;;;24.81;15.80
37858;BME280;23695;55.868;37.472;2022-12-18T10:21:10;99141.38;;;24.71;15.97
37858;BME280;23695;55.868;37.472;2022-12-18T10:24:31;99137.69;;;24.78;15.37
37858;BME280;23695;55.868;37.472;2022-12-18T10:26:37;99133.44;;;24.73;15.57
37858;BME280;23695;55.868;37.472;2022-12-18T10:29:12;99148.09;;;24.70;15.29
37858;BME280;23695;55.868;37.472;2022-12-18T10:31:39;99145.88;;;24.65;14.97
37858;BME280;23695;55.868;37.472;2022-12-18T10:34:24;99154.63;;;24.60;15.18
37858;BME280;23695;55.868;37.472;2022-12-18T10:36:51;99149.53;;;24.58;15.25
37858;BME280;23695;55.868;37.472;2022-12-18T10:39:23;99149.97;;;24.57;14.88
37858;BME280;23695;55.868;37.472;2022-12-18T10:41:51;99150.81;;;24.54;15.16
37858;BME280;23695;55.868;37.472;2022-12-18T10:44:22;99159.94;;;24.51;14.98
37858;BME280;23695;55.868;37.472;2022-12-18T10:46:53;99158.84;;;24.48;14.78
37858;BME280;23695;55.868;37.472;2022-12-18T10:49:29;99172.25;;;24.46;14.79
37858;BME280;23695;55.868;37.472;2022-12-18T10:55:16;99171.56;;;24.42;15.24
37858;BME280;23695;55.868;37.472;2022-12-18T10:57:44;99167.25;;;24.41;15.28
37858;BME280;23695;55.868;37.472;2022-12-18T11:02:51;99176.50;;;24.31;15.26
37858;BME280;23695;55.868;37.472;2022-12-18T11:05:45;99174.03;;;24.37;15.43
37858;BME280;23695;55.868;37.472;2022-12-18T11:08:20;99179.13;;;24.38;15.26
37858;BME280;23695;55.868;37.472;2022-12-18T11:10:49;99186.22;;;24.39;15.25
37858;BME280;23695;55.868;37.472;2022-12-18T11:13:18;99181.88;;;24.38;15.72
37858;BME280;23695;55.868;37.472;2022-12-18T11:15:47;99198.44;;;24.38;15.44
37858;BME280;23695;55.868;37.472;2022-12-18T11:18:22;99197.66;;;24.38;15.60
37858;BME280;23695;55.868;37.472;2022-12-18T11:20:54;99193.72;;;24.39;15.29
37858;BME280;23695;55.868;37.472;2022-12-18T11:23:25;99209.91;;;24.37;15.52
37858;BME280;23695;55.868;37.472;2022-12-18T11:25:57;99205.59;;;24.36;15.42
37858;BME280;23695;55.868;37.472;2022-12-18T11:28:26;99222.16;;;24.36;15.17
37858;BME280;23695;55.868;37.472;2022-12-18T11:31:26;99218.25;;;24.33;15.46
37858;BME280;23695;55.868;37.472;2022-12-18T11:34:20;99229.72;;;24.32;15.37
37858;BME280;23695;55.868;37.472;2022-12-18T11:36:58;99226.09;;;24.35;15.33
37858;BME280;23695;55.868;37.472;2022-12-18T11:39:36;99223.78;;;24.33;15.21
37858;BME280;23695;55.868;37.472;2022-12-18T11:42:14;99230.50;;;24.32;15.09
37858;BME280;23695;55.868;37.472;2022-12-18T11:45:20;99238.41;;;24.30;15.35
37858;BME280;23695;55.868;37.472;2022-12-18T11:53:03;99232.06;;;24.33;15.17
37858;BME280;23695;55.868;37.472;2022-12-18T11:58:34;99254.91;;;24.34;15.12
37858;BME280;23695;55.868;37.472;2022-12-18T12:09:25;99270.72;;;24.29;15.66
37858;BME280;23695;55.868;37.472;2022-12-18T12:15:10;99303.88;;;24.26;15.33
37858;BME280;23695;55.868;37.472;2022-12-18T12:18:08;99301.47;;;24.28;15.57
37858;BME280;23695;55.868;37.472;2022-12-18T12:23:39;99306.59;;;24.29;15.61
37858;BME280;23695;55.868;37.472;2022-12-18T12:32:12;99322.72;;;24.31;15.55
37858;BME280;23695;55.868;37.472;2022-12-18T12:34:58;99336.91;;;24.33;15.52
37858;BME280;23695;55.868;37.472;2022-12-18T12:40:20;99336.47;;;24.35;15.71
37858;BME280;23695;55.868;37.472;2022-12-18T12:43:22;99342.34;;;24.37;15.45
37858;BME280;23695;55.868;37.472;2022-12-18T12:45:54;99350.19;;;24.38;15.66
37858;BME280;23695;55.868;37.472;2022-12-18T12:51:40;99371.09;;;24.39;15.86
37858;BME280;23695;55.868;37.472;2022-12-18T12:54:18;99371.09;;;24.39;15.40
37858;BME280;23695;55.868;37.472;2022-12-18T12:56:54;99379.78;;;24.38;15.94
37858;BME280;23695;55.868;37.472;2022-12-18T13:02:18;99381.38;;;24.39;15.31
37858;BME280;23695;55.868;37.472;2022-12-18T13:04:58;99392.41;;;24.39;15.35
37858;BME280;23695;55.868;37.472;2022-12-18T13:07:41;99401.19;;;24.30;15.69
37858;BME280;23695;55.868;37.472;2022-12-18T13:12:56;99421.56;;;24.40;15.54
37858;BME280;23695;55.868;37.472;2022-12-18T13:15:29;99425.09;;;24.40;15.42
37858;BME280;23695;55.868;37.472;2022-12-18T13:20:47;99429.06;;;24.39;15.54
37858;BME280;23695;55.868;37.472;2022-12-18T13:28:52;99439.25;;;24.42;15.66
37858;BME280;23695;55.868;37.472;2022-12-18T13:34:16;99462.03;;;24.46;15.54
37858;BME280;23695;55.868;37.472;2022-12-18T13:36:56;99467.94;;;24.48;15.40
37858;BME280;23695;55.868;37.472;2022-12-18T13:39:31;99465.19;;;24.48;15.57
37858;BME280;23695;55.868;37.472;2022-12-18T13:44:46;99478.13;;;24.51;15.31
37858;BME280;23695;55.868;37.472;2022-12-18T13:47:32;99484.84;;;24.50;15.23
37858;BME280;23695;55.868;37.472;2022-12-18T13:50:01;99490.75;;;24.52;15.74
37858;BME280;23695;55.868;37.472;2022-12-18T13:52:37;99495.84;;;24.54;15.54
37858;BME280;23695;55.868;37.472;2022-12-18T13:55:14;99499.78;;;24.53;15.63
37858;BME280;23695;55.868;37.472;2022-12-18T13:57:43;99496.25;;;24.52;15.39
37858;BME280;23695;55.868;37.472;2022-12-18T14:02:49;99508.50;;;24.51;15.23
37858;BME280;23695;55.868;37.472;2022-12-18T14:05:28;99508.50;;;24.51;15.16
